Time;durP1;ratioP1;P1;durP2;ratioP2;P2;SDS_P1;SDS_P2;PMS_P1;PMS_P2;Temp;Humidity;BMP_temperature;BMP_pressure;BME280_temperature;BME280_humidity;BME280_pressure;Samples;Min_cycle;Max_cycle;Signal;HPM_P1;HPM_P2
2021/08/18 00:01:56;;;;;;;11.23;6.10;;;20.60;65.60;;;;;;2459745;55;20932;-82
2021/08/18 00:04:22;;;;;;;12.40;6.28;;;20.60;65.60;;;;;;2459443;55;20932;-83
2021/08/18 00:06:49;;;;;;;12.10;6.93;;;20.60;65.60;;;;;;2237725;55;20944;-85
2021/08/18 00:09:15;;;;;;;12.23;6.35;;;20.60;65.60;;;;;;2237678;55;20954;-84
2021/08/18 00:11:41;;;;;;;10.70;6.85;;;20.60;65.60;;;;;;2458900;55;20999;-83
2021/08/18 00:14:08;;;;;;;12.48;6.40;;;20.60;65.60;;;;;;2459089;55;21024;-84
2021/08/18 00:16:34;;;;;;;9.25;5.35;;;20.60;65.70;;;;;;2459080;55;21417;-84
2021/08/18 00:19:00;;;;;;;10.05;5.90;;;20.60;65.70;;;;;;2475671;55;21041;-84
2021/08/18 00:21:28;;;;;;;9.75;5.72;;;20.60;65.70;;;;;;2493598;55;20978;-83
2021/08/18 00:23:54;;;;;;;9.55;5.80;;;20.60;65.80;;;;;;2488375;55;21013;-83
2021/08/18 00:26:26;;;;;;;12.05;6.30;;;20.60;65.80;;;;;;2484115;55;21048;-84
2021/08/18 00:28:56;;;;;;;11.65;6.25;;;20.60;65.70;;;;;;2250461;55;20996;-84
2021/08/18 00:31:22;;;;;;;11.32;6.53;;;20.60;65.70;;;;;;2237190;55;21151;-83
2021/08/18 00:33:49;;;;;;;9.57;6.25;;;20.60;65.70;;;;;;2490745;55;20958;-83
2021/08/18 00:36:15;;;;;;;9.65;5.12;;;20.60;65.80;;;;;;2460232;55;20992;-81
2021/08/18 00:38:41;;;;;;;9.65;5.70;;;20.70;65.90;;;;;;2255632;55;21812;-83
2021/08/18 00:41:09;;;;;;;10.85;5.47;;;20.60;65.90;;;;;;2248690;55;20932;-83
2021/08/18 00:43:35;;;;;;;11.30;6.72;;;20.60;65.80;;;;;;2237677;55;20940;-84
2021/08/18 00:46:02;;;;;;;11.55;6.78;;;20.60;65.80;;;;;;2459656;55;21001;-82
2021/08/18 00:48:29;;;;;;;11.93;6.60;;;20.60;65.70;;;;;;2266248;55;21008;-84
2021/08/18 00:50:55;;;;;;;10.02;6.03;;;20.60;65.60;;;;;;2481500;55;20985;-83
2021/08/18 00:53:21;;;;;;;15.25;6.40;;;20.50;65.60;;;;;;2260085;55;21045;-83
2021/08/18 00:55:48;;;;;;;12.82;7.10;;;20.60;65.70;;;;;;2483813;55;20968;-83
2021/08/18 00:58:14;;;;;;;12.15;7.50;;;20.50;65.60;;;;;;2243979;55;20943;-84
2021/08/18 01:00:40;;;;;;;11.48;6.45;;;20.50;65.60;;;;;;2259991;55;20964;-82
2021/08/18 01:03:08;;;;;;;12.05;6.82;;;20.50;65.60;;;;;;2238224;55;22365;-83
2021/08/18 01:05:34;;;;;;;10.95;6.18;;;20.50;65.60;;;;;;2259678;55;20950;-83
2021/08/18 01:08:01;;;;;;;11.93;6.03;;;20.50;65.60;;;;;;2471085;55;20944;-84
2021/08/18 01:10:30;;;;;;;10.57;5.70;;;20.50;65.70;;;;;;2237530;55;21036;-83
2021/08/18 01:12:57;;;;;;;8.23;5.03;;;20.50;65.70;;;;;;2459639;55;25300;-82
2021/08/18 01:15:24;;;;;;;12.75;6.53;;;20.50;65.90;;;;;;2238253;55;20959;-84
2021/08/18 01:17:55;;;;;;;13.07;5.93;;;20.50;65.90;;;;;;2459653;55;20952;-83
2021/08/18 01:20:40;;;;;;;12.35;6.05;;;20.50;65.70;;;;;;2458904;55;21846;-84
2021/08/18 01:23:08;;;;;;;11.43;6.03;;;20.50;65.70;;;;;;2438483;55;20964;-83
2021/08/18 01:25:35;;;;;;;9.35;5.30;;;20.50;65.90;;;;;;2488167;55;21844;-84
2021/08/18 01:28:02;;;;;;;12.18;6.28;;;20.50;65.80;;;;;;2238616;55;20932;-83
2021/08/18 01:30:29;;;;;;;12.00;6.55;;;20.50;65.80;;;;;;2459337;55;20999;-84
2021/08/18 01:33:03;;;;;;;11.93;6.90;;;20.40;65.70;;;;;;2459765;55;21073;-82
2021/08/18 01:35:55;;;;;;;11.50;6.75;;;20.50;65.60;;;;;;2266111;55;20966;-83
2021/08/18 01:38:22;;;;;;;12.50;6.30;;;20.50;65.30;;;;;;2237657;55;21043;-84
2021/08/18 01:40:51;;;;;;;10.35;6.07;;;20.50;65.90;;;;;;2459250;55;20960;-83
2021/08/18 01:43:19;;;;;;;9.88;5.30;;;20.40;65.70;;;;;;2267280;55;21001;-84
2021/08/18 01:45:46;;;;;;;9.65;5.28;;;20.40;65.80;;;;;;2476337;55;21026;-83
2021/08/18 01:48:19;;;;;;;9.90;5.47;;;20.40;65.90;;;;;;2475646;55;20981;-82
2021/08/18 01:50:47;;;;;;;10.48;6.03;;;20.40;65.70;;;;;;2237996;55;21024;-84
2021/08/18 01:53:24;;;;;;;12.95;6.35;;;20.40;65.90;;;;;;2460596;55;21511;-83
2021/08/18 01:55:50;;;;;;;10.93;6.30;;;20.40;65.60;;;;;;2238216;55;20980;-85
2021/08/18 01:58:18;;;;;;;10.00;6.43;;;20.40;65.80;;;;;;2240964;55;20995;-83
2021/08/18 02:00:44;;;;;;;13.10;6.12;;;20.40;65.90;;;;;;2265787;55;20978;-83
2021/08/18 02:03:11;;;;;;;9.82;6.12;;;20.40;65.90;;;;;;2259325;55;20995;-84
2021/08/18 02:05:37;;;;;;;11.85;5.72;;;20.40;65.80;;;;;;2270387;55;20989;-83
2021/08/18 02:08:04;;;;;;;11.00;5.55;;;20.40;65.80;;;;;;2259906;55;20972;-83
2021/08/18 02:10:30;;;;;;;11.57;6.85;;;20.30;65.80;;;;;;2486423;55;21638;-84
2021/08/18 02:12:56;;;;;;;13.07;6.43;;;20.40;65.80;;;;;;2491356;55;21006;-83
2021/08/18 02:15:36;;;;;;;10.80;6.32;;;20.30;65.70;;;;;;2265623;55;21513;-83
2021/08/18 02:18:03;;;;;;;11.15;5.90;;;20.30;65.70;;;;;;2484893;55;21085;-83
2021/08/18 02:20:31;;;;;;;10.15;6.03;;;20.30;65.70;;;;;;2482508;55;21986;-84
2021/08/18 02:22:57;;;;;;;10.27;6.12;;;20.30;65.70;;;;;;2252373;55;20964;-82
2021/08/18 02:25:24;;;;;;;9.50;5.68;;;20.30;65.80;;;;;;2459109;55;21040;-83
2021/08/18 02:27:50;;;;;;;10.20;5.75;;;20.30;65.90;;;;;;2243380;55;20959;-83
2021/08/18 02:30:19;;;;;;;10.93;6.03;;;20.30;65.90;;;;;;2261409;55;20956;-83
2021/08/18 02:32:45;;;;;;;11.93;5.97;;;20.30;65.90;;;;;;2464850;55;20974;-83
2021/08/18 02:35:12;;;;;;;9.50;5.75;;;20.20;65.90;;;;;;2458965;55;21823;-83
2021/08/18 02:37:38;;;;;;;10.20;6.22;;;20.20;65.90;;;;;;2246471;55;21085;-83
2021/08/18 02:40:06;;;;;;;8.50;5.18;;;20.10;65.80;;;;;;2483737;54;21843;-83
2021/08/18 02:42:32;;;;;;;10.00;5.15;;;20.10;65.90;;;;;;2486640;55;20950;-81
2021/08/18 02:44:58;;;;;;;9.07;5.35;;;20.00;66.00;;;;;;2471983;55;20964;-83
2021/08/18 02:47:24;;;;;;;9.25;5.28;;;20.00;66.10;;;;;;2269903;55;20972;-82
2021/08/18 02:49:51;;;;;;;9.13;5.18;;;20.00;66.20;;;;;;2267096;55;20954;-83
2021/08/18 02:52:17;;;;;;;9.52;5.55;;;19.90;66.20;;;;;;2468134;55;20985;-83
2021/08/18 02:54:44;;;;;;;10.10;5.75;;;19.90;66.30;;;;;;2482433;55;20988;-83
2021/08/18 02:57:10;;;;;;;11.82;6.18;;;19.90;66.40;;;;;;2271553;55;21136;-83
2021/08/18 02:59:37;;;;;;;8.25;5.37;;;19.80;66.40;;;;;;2473965;55;21560;-81
2021/08/18 03:02:03;;;;;;;9.18;5.07;;;19.80;66.50;;;;;;2475737;55;21106;-82
2021/08/18 03:04:30;;;;;;;9.57;5.53;;;19.70;66.40;;;;;;2237151;55;21019;-84
2021/08/18 03:06:57;;;;;;;11.40;6.12;;;19.70;66.50;;;;;;2468165;55;20974;-82
2021/08/18 03:09:23;;;;;;;9.57;5.80;;;19.70;66.60;;;;;;2479037;55;21000;-83
2021/08/18 03:11:50;;;;;;;11.05;6.28;;;19.70;66.60;;;;;;2237437;55;20961;-82
2021/08/18 03:14:17;;;;;;;11.07;6.60;;;19.60;66.50;;;;;;2465153;55;21097;-82
2021/08/18 03:16:44;;;;;;;9.85;5.85;;;19.60;66.50;;;;;;2261083;55;22037;-83
2021/08/18 03:19:10;;;;;;;10.00;5.80;;;19.60;66.60;;;;;;2458469;55;21558;-82
2021/08/18 03:21:37;;;;;;;10.77;6.40;;;19.50;66.60;;;;;;2469938;55;21653;-82
2021/08/18 03:24:04;;;;;;;10.38;5.35;;;19.50;66.80;;;;;;2251491;55;20980;-83
2021/08/18 03:26:30;;;;;;;9.40;5.65;;;19.50;66.90;;;;;;2457596;55;20940;-83
2021/08/18 03:28:57;;;;;;;10.43;6.05;;;19.50;67.00;;;;;;2458570;55;21056;-82
2021/08/18 03:31:23;;;;;;;12.75;5.85;;;19.50;67.10;;;;;;2236988;55;20929;-83
2021/08/18 03:33:49;;;;;;;11.93;6.72;;;19.40;67.10;;;;;;2270190;55;21384;-83
2021/08/18 03:36:15;;;;;;;13.70;7.10;;;19.40;67.00;;;;;;2464805;55;20998;-83
2021/08/18 03:38:42;;;;;;;11.02;6.45;;;19.40;67.00;;;;;;2256208;55;20964;-83
2021/08/18 03:41:08;;;;;;;9.73;6.00;;;19.40;67.00;;;;;;2476338;55;20950;-82
2021/08/18 03:43:34;;;;;;;11.55;5.90;;;19.30;67.00;;;;;;2468791;55;21408;-83
2021/08/18 03:46:00;;;;;;;10.90;6.12;;;19.30;67.10;;;;;;2235914;55;20976;-82
2021/08/18 03:48:27;;;;;;;12.20;6.03;;;19.30;67.10;;;;;;2236329;55;20944;-84
2021/08/18 03:50:53;;;;;;;9.90;5.78;;;19.20;67.20;;;;;;2486842;55;20966;-84
2021/08/18 03:53:19;;;;;;;9.30;5.35;;;19.20;67.30;;;;;;2237024;55;20932;-84
2021/08/18 03:55:45;;;;;;;8.02;4.80;;;19.20;67.40;;;;;;2480166;55;21034;-85
2021/08/18 03:58:11;;;;;;;9.88;5.50;;;19.20;67.50;;;;;;2245849;55;21004;-84
2021/08/18 04:00:38;;;;;;;9.88;4.87;;;19.10;67.50;;;;;;2264595;55;20974;-83
2021/08/18 04:03:04;;;;;;;10.35;5.70;;;19.10;67.70;;;;;;2249615;55;21099;-83
2021/08/18 04:05:31;;;;;;;9.63;5.53;;;19.10;67.70;;;;;;2458697;55;21494;-83
2021/08/18 04:07:57;;;;;;;9.05;4.65;;;19.10;67.80;;;;;;2253681;55;21104;-84
2021/08/18 04:10:23;;;;;;;9.05;5.28;;;19.00;67.80;;;;;;2478182;54;21097;-86
2021/08/18 04:13:07;;;;;;;10.57;4.68;;;19.00;67.90;;;;;;2460266;55;20980;-84
2021/08/18 04:15:39;;;;;;;9.02;4.70;;;19.10;68.10;;;;;;2269762;55;21005;-84
2021/08/18 04:18:05;;;;;;;11.10;5.50;;;19.00;68.20;;;;;;2488024;55;21042;-83
2021/08/18 04:20:32;;;;;;;9.23;5.32;;;19.00;68.20;;;;;;2480490;55;21005;-82
2021/08/18 04:22:58;;;;;;;10.15;5.85;;;19.00;68.20;;;;;;2470740;55;21068;-83
2021/08/18 04:25:24;;;;;;;13.88;6.37;;;19.00;68.30;;;;;;2458327;55;21000;-82
2021/08/18 04:27:51;;;;;;;11.10;6.25;;;19.10;68.40;;;;;;2458117;55;20964;-82
2021/08/18 04:30:17;;;;;;;10.68;5.57;;;19.00;68.30;;;;;;2237970;55;20960;-85
2021/08/18 04:32:44;;;;;;;10.30;5.72;;;19.00;68.40;;;;;;2460659;55;20984;-84
2021/08/18 04:35:11;;;;;;;9.70;5.32;;;19.00;68.40;;;;;;2460387;55;21506;-84
2021/08/18 04:37:38;;;;;;;9.35;5.37;;;19.00;68.50;;;;;;2460532;55;20972;-84
2021/08/18 04:40:09;;;;;;;8.52;4.90;;;19.00;68.50;;;;;;2459828;55;21032;-84
2021/08/18 04:42:37;;;;;;;9.35;5.25;;;19.00;68.70;;;;;;2266705;55;20998;-85
2021/08/18 04:45:04;;;;;;;10.27;5.72;;;19.00;68.80;;;;;;2237616;55;21019;-84
2021/08/18 04:47:30;;;;;;;9.55;5.68;;;19.00;68.80;;;;;;2233340;55;21018;-85
2021/08/18 04:49:57;;;;;;;9.50;5.50;;;19.00;68.80;;;;;;2484586;55;20957;-84
2021/08/18 04:52:23;;;;;;;11.45;5.72;;;19.00;68.90;;;;;;2266565;55;20958;-84
2021/08/18 04:54:49;;;;;;;10.85;6.00;;;19.00;68.90;;;;;;2472304;55;20994;-83
2021/08/18 04:57:15;;;;;;;9.75;5.45;;;19.00;68.90;;;;;;2481694;55;21000;-84
2021/08/18 04:59:41;;;;;;;8.15;5.05;;;19.00;68.90;;;;;;2486142;54;20946;-83
2021/08/18 05:02:11;;;;;;;10.30;5.90;;;19.00;68.90;;;;;;2270704;55;20970;-83
2021/08/18 05:04:37;;;;;;;9.73;5.68;;;19.00;68.90;;;;;;2469569;55;21038;-81
2021/08/18 05:07:04;;;;;;;11.27;5.20;;;19.00;68.90;;;;;;2488681;55;21038;-82
2021/08/18 05:09:34;;;;;;;9.25;5.25;;;19.00;69.00;;;;;;2484356;55;20937;-85
2021/08/18 05:12:01;;;;;;;9.60;5.45;;;19.00;69.10;;;;;;2464971;55;21090;-83
2021/08/18 05:14:27;;;;;;;12.52;6.53;;;19.00;69.20;;;;;;2262442;55;21299;-82
2021/08/18 05:16:54;;;;;;;10.98;5.87;;;19.10;69.30;;;;;;2465761;55;20968;-81
2021/08/18 05:19:20;;;;;;;10.07;5.65;;;19.00;69.30;;;;;;2486547;55;21055;-83
2021/08/18 05:21:46;;;;;;;9.73;5.40;;;19.00;69.30;;;;;;2265809;55;20950;-84
2021/08/18 05:24:13;;;;;;;10.00;5.45;;;19.00;69.30;;;;;;2466203;55;21682;-84
2021/08/18 05:26:39;;;;;;;10.63;5.60;;;19.00;69.40;;;;;;2462008;55;20956;-83
2021/08/18 05:29:05;;;;;;;11.00;5.93;;;19.00;69.40;;;;;;2473473;55;21014;-82
2021/08/18 05:31:32;;;;;;;9.73;5.15;;;19.10;69.50;;;;;;2257541;55;21072;-84
2021/08/18 05:33:58;;;;;;;9.38;5.37;;;19.10;69.60;;;;;;2238462;55;21577;-84
2021/08/18 05:36:27;;;;;;;13.23;5.90;;;19.10;69.60;;;;;;2463469;55;21012;-83
2021/08/18 05:38:53;;;;;;;10.00;5.40;;;19.10;69.60;;;;;;2485924;55;20952;-83
2021/08/18 05:41:26;;;;;;;10.38;6.03;;;19.10;69.60;;;;;;2490996;55;20942;-85
2021/08/18 05:43:52;;;;;;;;;;;19.10;69.50;;;;;;2241962;55;20985;-85
2021/08/18 05:46:21;;;;;;;9.98;5.30;;;19.20;69.10;;;;;;2460957;55;20107;-83
2021/08/18 05:48:47;;;;;;;9.65;5.30;;;19.10;69.50;;;;;;2259939;55;21054;-85
2021/08/18 05:51:14;;;;;;;8.88;5.07;;;19.10;69.60;;;;;;2464721;55;20953;-82
2021/08/18 05:53:40;;;;;;;8.55;4.68;;;19.10;69.70;;;;;;2489929;55;20974;-83
2021/08/18 05:56:06;;;;;;;9.60;5.55;;;19.10;69.80;;;;;;2468909;55;20972;-82
2021/08/18 05:58:32;;;;;;;12.70;6.40;;;19.20;69.90;;;;;;2257602;55;20970;-84
2021/08/18 06:00:59;;;;;;;10.05;6.18;;;19.20;69.90;;;;;;2246986;55;21454;-85
2021/08/18 06:03:26;;;;;;;11.70;5.78;;;19.20;69.90;;;;;;2263301;55;20970;-84
2021/08/18 06:05:53;;;;;;;10.38;5.85;;;19.10;69.90;;;;;;2482229;55;20965;-85
2021/08/18 06:08:19;;;;;;;12.05;5.62;;;19.30;70.10;;;;;;2474423;55;20917;-86
2021/08/18 06:10:45;;;;;;;9.30;5.00;;;19.20;70.00;;;;;;2461193;55;21121;-84
2021/08/18 06:13:12;;;;;;;9.18;5.28;;;19.20;70.10;;;;;;2489296;55;20988;-85
2021/08/18 06:15:39;;;;;;;10.45;5.78;;;19.20;70.10;;;;;;2238743;55;20956;-85
2021/08/18 06:18:05;;;;;;;10.05;5.85;;;19.30;70.30;;;;;;2489803;55;21873;-86
2021/08/18 06:20:32;;;;;;;9.73;5.70;;;19.30;70.30;;;;;;2242287;55;20964;-85
2021/08/18 06:22:58;;;;;;;11.93;5.90;;;19.30;70.20;;;;;;2266331;55;21017;-85
2021/08/18 06:25:24;;;;;;;10.95;5.85;;;19.30;70.10;;;;;;2250316;55;21039;-84
2021/08/18 06:27:51;;;;;;;11.10;5.43;;;19.30;70.10;;;;;;2254534;55;20936;-83
2021/08/18 06:30:18;;;;;;;9.63;5.72;;;19.40;70.20;;;;;;2460481;55;20949;-84
2021/08/18 06:32:44;;;;;;;10.10;5.43;;;19.30;70.10;;;;;;2460808;55;21478;-83
2021/08/18 06:35:13;;;;;;;10.05;4.93;;;19.40;70.20;;;;;;2224851;55;21092;-84
2021/08/18 06:37:40;;;;;;;9.80;5.65;;;19.40;70.20;;;;;;2460205;55;20944;-81
2021/08/18 06:40:09;;;;;;;9.13;5.32;;;19.40;70.20;;;;;;2238201;55;20956;-83
2021/08/18 06:42:44;;;;;;;10.30;5.50;;;19.40;70.10;;;;;;2259316;55;21112;-86
2021/08/18 06:45:11;;;;;;;10.45;5.35;;;19.40;70.00;;;;;;2492328;55;20953;-85
2021/08/18 06:47:38;;;;;;;10.15;4.97;;;19.50;70.20;;;;;;2469474;55;21182;-82
2021/08/18 06:50:07;;;;;;;10.32;5.40;;;19.50;70.20;;;;;;2488805;55;21026;-83
2021/08/18 06:52:33;;;;;;;11.05;5.45;;;19.50;70.10;;;;;;2478732;55;21391;-81
2021/08/18 06:54:59;;;;;;;10.10;5.82;;;19.50;70.00;;;;;;2270493;55;20982;-82
2021/08/18 06:57:26;;;;;;;9.43;5.07;;;19.50;70.00;;;;;;2478092;55;21792;-83
2021/08/18 06:59:52;;;;;;;10.38;5.45;;;19.50;70.00;;;;;;2249083;55;21001;-85
2021/08/18 07:02:21;;;;;;;8.13;4.80;;;19.50;70.10;;;;;;2255037;55;21000;-85
2021/08/18 07:04:48;;;;;;;8.30;4.95;;;19.50;70.00;;;;;;2461311;55;20960;-84
2021/08/18 07:07:14;;;;;;;10.27;5.28;;;19.50;70.10;;;;;;2238697;55;20956;-84
2021/08/18 07:09:40;;;;;;;9.00;5.25;;;19.50;70.20;;;;;;2492808;55;21948;-84
2021/08/18 07:12:07;;;;;;;8.70;4.55;;;19.60;70.20;;;;;;2463569;55;24781;-84
2021/08/18 07:14:34;;;;;;;7.15;4.72;;;19.60;70.20;;;;;;2460519;55;21310;-84
2021/08/18 07:17:00;;;;;;;9.50;4.97;;;19.60;70.10;;;;;;2460652;55;20980;-84
2021/08/18 07:19:28;;;;;;;11.35;6.18;;;19.60;70.10;;;;;;2238348;55;21024;-84
2021/08/18 07:21:55;;;;;;;8.23;4.70;;;19.60;70.00;;;;;;2460283;55;21480;-85
2021/08/18 07:24:24;;;;;;;8.43;4.78;;;19.60;70.10;;;;;;2261517;55;21042;-85
2021/08/18 07:26:52;;;;;;;7.55;4.95;;;19.60;70.00;;;;;;2243498;55;21036;-85
2021/08/18 07:29:30;;;;;;;9.27;4.87;;;19.70;70.20;;;;;;2460310;55;21748;-82
2021/08/18 07:31:56;;;;;;;8.98;4.57;;;19.70;69.90;;;;;;2464108;55;20964;-84
2021/08/18 07:34:23;;;;;;;8.57;3.83;;;19.70;70.20;;;;;;2489603;55;21040;-85
2021/08/18 07:36:49;;;;;;;8.05;4.87;;;19.70;70.30;;;;;;2478243;55;20942;-84
2021/08/18 07:39:18;;;;;;;8.48;4.45;;;19.70;70.30;;;;;;2473934;55;20968;-83
2021/08/18 07:41:44;;;;;;;8.52;4.55;;;19.70;70.20;;;;;;2238473;55;20948;-83
2021/08/18 07:44:11;;;;;;;8.88;5.18;;;19.80;70.30;;;;;;2264799;55;21484;-83
2021/08/18 07:46:37;;;;;;;6.90;4.55;;;19.80;70.10;;;;;;2481783;55;21072;-82
2021/08/18 07:49:04;;;;;;;7.43;4.70;;;19.80;70.00;;;;;;2246602;55;20976;-83
2021/08/18 07:51:30;;;;;;;6.97;4.25;;;19.80;69.90;;;;;;2491913;55;21934;-82
2021/08/18 07:53:58;;;;;;;9.30;5.20;;;19.90;70.10;;;;;;2463698;55;20924;-83
2021/08/18 07:56:24;;;;;;;11.73;5.03;;;19.90;70.10;;;;;;2238144;55;20972;-83
2021/08/18 07:58:51;;;;;;;7.55;4.53;;;19.90;70.10;;;;;;2238178;55;20956;-83
2021/08/18 08:01:28;;;;;;;9.45;4.15;;;20.00;70.10;;;;;;2238499;55;21319;-83
2021/08/18 08:03:54;;;;;;;5.97;3.65;;;20.00;70.00;;;;;;2469567;55;21021;-82
2021/08/18 08:06:20;;;;;;;7.62;3.53;;;20.00;70.10;;;;;;2255327;55;20952;-82
2021/08/18 08:08:49;;;;;;;6.22;3.55;;;20.10;70.30;;;;;;2483439;54;20990;-82
2021/08/18 08:11:17;;;;;;;5.80;3.33;;;20.10;70.40;;;;;;2244706;55;21094;-84
2021/08/18 08:13:44;;;;;;;5.60;3.47;;;20.20;70.50;;;;;;2267758;55;20986;-84
2021/08/18 08:16:10;;;;;;;6.55;3.37;;;20.20;70.50;;;;;;2463789;55;21015;-83
2021/08/18 08:18:37;;;;;;;5.95;3.53;;;20.30;70.60;;;;;;2250166;55;21009;-84
2021/08/18 08:21:06;;;;;;;8.02;3.60;;;20.40;70.70;;;;;;2477455;54;21035;-83
2021/08/18 08:23:32;;;;;;;8.40;3.12;;;20.50;70.70;;;;;;2478251;55;20953;-81
2021/08/18 08:25:59;;;;;;;5.78;3.72;;;20.60;70.70;;;;;;2471806;55;20980;-84
2021/08/18 08:28:25;;;;;;;8.95;3.90;;;20.60;70.70;;;;;;2490328;55;20946;-82
2021/08/18 08:30:52;;;;;;;6.57;3.58;;;20.70;70.50;;;;;;2460536;55;21008;-82
2021/08/18 08:33:18;;;;;;;5.70;3.20;;;20.80;70.40;;;;;;2224265;55;21028;-83
2021/08/18 08:35:44;;;;;;;6.72;3.45;;;20.90;70.30;;;;;;2490107;55;20949;-83
2021/08/18 08:38:13;;;;;;;6.80;3.78;;;20.90;70.20;;;;;;2251604;55;21539;-83
2021/08/18 08:40:39;;;;;;;7.40;3.65;;;21.00;70.00;;;;;;2269145;55;20981;-83
2021/08/18 08:43:06;;;;;;;6.20;3.50;;;21.10;69.90;;;;;;2477673;55;21514;-83
2021/08/18 08:45:32;;;;;;;9.30;3.78;;;21.10;69.70;;;;;;2270846;55;21026;-83
2021/08/18 08:48:01;;;;;;;5.65;3.03;;;21.20;69.60;;;;;;2266916;55;20987;-83
2021/08/18 08:50:36;;;;;;;5.57;2.90;;;21.20;69.40;;;;;;2469509;55;21838;-81
2021/08/18 08:53:05;;;;;;;5.62;3.10;;;21.30;69.50;;;;;;2265142;55;21596;-84
2021/08/18 08:55:32;;;;;;;5.05;2.80;;;21.30;69.50;;;;;;2252938;55;21099;-83
2021/08/18 08:57:58;;;;;;;4.90;2.70;;;21.40;69.40;;;;;;2237746;55;20992;-82
2021/08/18 09:00:25;;;;;;;4.95;2.30;;;21.40;69.20;;;;;;2237950;55;22138;-83
2021/08/18 09:03:15;;;;;;;5.18;2.42;;;21.50;69.10;;;;;;2271465;55;21265;-84
2021/08/18 09:05:44;;;;;;;5.40;2.47;;;21.50;67.80;;;;;;2237868;55;21922;-83
2021/08/18 09:08:14;;;;;;;6.32;2.75;;;21.60;68.70;;;;;;2459823;55;20989;-83
2021/08/18 09:10:41;;;;;;;4.95;2.70;;;21.60;68.40;;;;;;2459535;55;20940;-83
2021/08/18 09:13:15;;;;;;;5.60;2.55;;;21.60;68.20;;;;;;2237679;55;21852;-82
2021/08/18 09:16:03;;;;;;;5.25;2.55;;;21.60;67.80;;;;;;2459449;55;20968;-83
2021/08/18 09:18:46;;;;;;;6.18;2.62;;;21.60;68.20;;;;;;2468030;55;20990;-83
2021/08/18 09:21:39;;;;;;;4.18;1.95;;;21.70;68.00;;;;;;2476188;55;20944;-82
2021/08/18 09:24:38;;;;;;;;;;;21.80;68.40;;;;;;2240264;55;21030;-83
2021/08/18 09:27:08;;;;;;;4.80;2.20;;;21.80;67.60;;;;;;2485238;55;20811;-82
2021/08/18 09:29:44;;;;;;;5.10;2.62;;;21.90;68.90;;;;;;2241053;55;21020;-81
2021/08/18 09:32:32;;;;;;;6.12;3.20;;;22.00;68.50;;;;;;2492913;55;21026;-83
2021/08/18 09:35:11;;;;;;;6.03;3.33;;;22.10;67.60;;;;;;2484997;55;21572;-83
2021/08/18 09:37:39;;;;;;;7.00;3.17;;;22.10;67.90;;;;;;2264751;55;20994;-81
2021/08/18 09:40:19;;;;;;;5.60;3.12;;;22.20;68.10;;;;;;2464352;55;21026;-82
2021/08/18 09:42:46;;;;;;;6.18;3.30;;;22.30;67.30;;;;;;2236481;55;20964;-83
2021/08/18 09:45:14;;;;;;;4.80;2.60;;;22.30;67.90;;;;;;2463013;55;21020;-82
2021/08/18 09:47:51;;;;;;;5.10;2.78;;;22.30;67.90;;;;;;2485143;55;20975;-83
2021/08/18 09:50:21;;;;;;;6.07;3.12;;;22.50;67.30;;;;;;2265828;55;21018;-82
2021/08/18 09:52:49;;;;;;;5.90;2.87;;;22.50;67.30;;;;;;2459724;55;20952;-82
2021/08/18 09:55:20;;;;;;;6.22;2.62;;;22.50;67.20;;;;;;2237548;55;20941;-83
2021/08/18 09:57:47;;;;;;;4.73;2.37;;;22.60;67.00;;;;;;2237481;55;21942;-83
2021/08/18 10:00:13;;;;;;;4.55;2.40;;;22.70;67.30;;;;;;2471788;55;21034;-82
2021/08/18 10:02:40;;;;;;;5.95;2.25;;;22.60;67.20;;;;;;2479645;55;20922;-83
2021/08/18 10:05:07;;;;;;;3.53;1.80;;;22.70;67.50;;;;;;2265189;55;20990;-82
2021/08/18 10:07:34;;;;;;;5.30;2.90;;;22.80;67.80;;;;;;2237660;55;21028;-83
2021/08/18 10:10:03;;;;;;;4.57;2.37;;;22.90;67.50;;;;;;2459490;55;20959;-81
2021/08/18 10:12:32;;;;;;;4.90;2.95;;;23.00;66.70;;;;;;2237363;55;21016;-82
2021/08/18 10:15:01;;;;;;;5.30;2.40;;;23.10;66.10;;;;;;2460106;55;21037;-84
2021/08/18 10:17:30;;;;;;;4.37;2.53;;;23.10;66.10;;;;;;2246202;55;20978;-83
2021/08/18 10:19:57;;;;;;;4.97;2.42;;;23.10;65.90;;;;;;2482374;54;20969;-84
2021/08/18 10:22:25;;;;;;;5.00;2.40;;;23.20;66.10;;;;;;2459486;55;20934;-84
2021/08/18 10:24:52;;;;;;;6.60;2.30;;;23.20;66.00;;;;;;2265971;55;20982;-82
2021/08/18 10:27:46;;;;;;;4.85;2.12;;;23.20;66.10;;;;;;2260731;55;21728;-82
2021/08/18 10:30:25;;;;;;;5.10;2.33;;;23.30;64.90;;;;;;2464290;55;21039;-83
2021/08/18 10:32:52;;;;;;;6.80;2.75;;;23.40;66.00;;;;;;2459649;55;21513;-84
2021/08/18 10:42:07;;;;;;;4.80;2.50;;;23.50;66.10;;;;;;2277683;55;20982;-82
2021/08/18 10:44:51;;;;;;;3.17;1.67;;;23.80;65.50;;;;;;2243423;55;21021;-82
2021/08/18 10:47:37;;;;;;;4.28;1.87;;;23.90;65.50;;;;;;2274505;55;20991;-83
2021/08/18 10:51:04;;;;;;;3.10;1.60;;;23.90;66.20;;;;;;2220843;55;20995;-80
2021/08/18 10:53:32;;;;;;;2.90;1.45;;;24.00;64.70;;;;;;2457362;55;21282;-80
2021/08/18 10:56:03;;;;;;;4.87;1.27;;;24.10;65.50;;;;;;2235603;55;21060;-79
2021/08/18 10:58:33;;;;;;;2.70;1.10;;;24.10;64.60;;;;;;2255721;55;20982;-81
2021/08/18 11:00:59;;;;;;;2.83;1.30;;;24.10;64.20;;;;;;2466875;55;21585;-80
2021/08/18 11:03:31;;;;;;;4.03;1.40;;;24.10;64.10;;;;;;2458314;55;20940;-80
2021/08/18 11:05:58;;;;;;;2.47;1.15;;;24.10;63.40;;;;;;2458529;55;21268;-79
2021/08/18 11:08:40;;;;;;;3.00;1.30;;;24.00;63.60;;;;;;2460283;55;20952;-81
2021/08/18 11:11:11;;;;;;;1.98;0.90;;;24.00;63.40;;;;;;2271643;55;21133;-79
2021/08/18 11:14:34;;;;;;;2.60;0.90;;;24.00;63.50;;;;;;2437112;55;21003;-85
2021/08/18 11:17:08;;;;;;;2.87;1.10;;;24.00;62.10;;;;;;2458614;55;20932;-80
2021/08/18 11:19:34;;;;;;;2.87;1.20;;;24.00;63.20;;;;;;2234066;55;20953;-79
2021/08/18 11:22:09;;;;;;;2.75;1.05;;;24.00;63.50;;;;;;2486933;55;21461;-82
2021/08/18 11:24:38;;;;;;;2.30;1.05;;;24.00;63.40;;;;;;2223625;55;20996;-83
2021/08/18 11:27:05;;;;;;;3.17;1.40;;;24.00;63.30;;;;;;2436139;55;21016;-82
2021/08/18 11:29:34;;;;;;;3.12;1.20;;;24.00;63.30;;;;;;2489422;55;20990;-80
2021/08/18 11:32:01;;;;;;;4.90;1.10;;;24.00;63.60;;;;;;2472200;55;22414;-78
2021/08/18 11:34:31;;;;;;;2.80;1.20;;;24.10;63.60;;;;;;2476600;55;21017;-80
2021/08/18 11:37:14;;;;;;;2.62;1.20;;;24.10;63.50;;;;;;2235523;55;20952;-79
2021/08/18 11:39:49;;;;;;;4.75;1.42;;;24.20;62.30;;;;;;2457858;55;20972;-79
2021/08/18 11:42:17;;;;;;;2.83;1.30;;;24.20;62.80;;;;;;2457136;55;21084;-79
2021/08/18 11:44:44;;;;;;;2.35;1.10;;;24.30;63.10;;;;;;2457085;55;20953;-78
2021/08/18 11:47:14;;;;;;;3.75;1.30;;;24.30;63.10;;;;;;2233405;55;20992;-80
2021/08/18 11:49:40;;;;;;;2.50;0.95;;;24.30;62.50;;;;;;2262532;55;20973;-79
2021/08/18 11:52:08;;;;;;;2.80;0.93;;;24.30;62.70;;;;;;2234530;55;21818;-79
2021/08/18 11:54:34;;;;;;;2.62;1.02;;;24.40;63.00;;;;;;2253985;55;20958;-81
2021/08/18 11:57:02;;;;;;;2.37;0.82;;;24.40;63.10;;;;;;2470927;55;21336;-80
2021/08/18 11:59:29;;;;;;;2.15;0.85;;;24.50;63.40;;;;;;2457634;55;21024;-81
2021/08/18 12:01:55;;;;;;;2.40;1.10;;;24.50;63.60;;;;;;2457691;55;20996;-80
2021/08/18 12:04:22;;;;;;;1.95;0.88;;;24.60;63.40;;;;;;2457155;55;20948;-80
2021/08/18 12:13:46;;;;;;;2.00;0.82;;;24.70;63.50;;;;;;2234685;55;21446;-80
2021/08/18 12:16:31;;;;;;;1.33;0.62;;;25.00;63.20;;;;;;2436745;55;22001;-79
2021/08/18 12:19:23;;;;;;;2.62;0.77;;;25.00;63.10;;;;;;2234672;55;20995;-79
2021/08/18 12:22:05;;;;;;;3.08;1.05;;;25.10;62.10;;;;;;2458541;55;21001;-83
2021/08/18 12:24:32;;;;;;;;;;;25.20;63.00;;;;;;2483289;55;20974;-80
2021/08/18 12:27:03;;;;;;;4.22;1.20;;;25.20;62.60;;;;;;2252724;55;20551;-82
2021/08/18 12:29:30;;;;;;;2.87;1.20;;;25.30;63.10;;;;;;2266382;55;21066;-82
2021/08/18 12:32:01;;;;;;;2.78;1.00;;;25.30;62.80;;;;;;2265201;55;20990;-82
2021/08/18 12:34:47;;;;;;;2.35;1.02;;;25.30;62.20;;;;;;2236895;55;21028;-84
2021/08/18 12:37:16;;;;;;;2.60;1.00;;;25.40;61.70;;;;;;2271650;55;20979;-82
2021/08/18 12:39:44;;;;;;;2.75;0.90;;;25.40;62.50;;;;;;2460368;55;20971;-81
2021/08/18 12:42:27;;;;;;;2.83;1.23;;;25.40;62.60;;;;;;2270830;55;21019;-84
2021/08/18 12:45:22;;;;;;;2.45;0.95;;;25.40;61.00;;;;;;2461864;55;20944;-83
2021/08/18 12:47:59;;;;;;;2.22;1.08;;;25.50;61.70;;;;;;2459754;55;21043;-83
2021/08/18 12:50:27;;;;;;;2.17;0.95;;;25.50;61.80;;;;;;2489189;54;21025;-82
2021/08/18 12:52:54;;;;;;;2.30;1.10;;;25.60;63.00;;;;;;2477068;55;20954;-81
2021/08/18 12:55:20;;;;;;;2.40;1.12;;;25.70;63.20;;;;;;2484641;55;20966;-83
2021/08/18 12:57:47;;;;;;;4.35;1.08;;;25.80;63.30;;;;;;2483618;55;21052;-84
2021/08/18 13:00:13;;;;;;;3.05;1.10;;;25.90;63.00;;;;;;2486790;55;20995;-84
2021/08/18 13:02:40;;;;;;;2.00;0.88;;;25.90;62.30;;;;;;2471596;55;21538;-82
2021/08/18 13:05:07;;;;;;;2.62;1.35;;;26.00;61.90;;;;;;2484419;55;20951;-82
2021/08/18 13:07:34;;;;;;;2.10;1.10;;;26.00;61.40;;;;;;2485052;55;21042;-83